Impacts METAR Board
IDs:

KAUS - Austin/Bergstrom Int, TX, US

Updated at: 2200 UTC 02 Oct 2022
Potential Impact None Slight Moderate High
Time 02/10Z 02/11Z 02/12Z 02/13Z 02/14Z 02/15Z 02/16Z 02/17Z 02/18Z 02/19Z 02/20Z 02/21Z 02/22Z
Temp51 52 49 52 63 69 75 77 80 83 83 84 83
Dewpt47 48 47 49 49 52 54 54 52 50 45 43 44
Altim30.09 30.10 30.12 30.14 30.17 30.19 30.18 30.18 30.15 30.13 30.10 30.08 30.09
VIS10 10 10 10 10 10 10 10 10 10 10 10 10
CIG-- -- -- -- -- -- -- -- 250 250 -- 250 250
CoverCLRCLRFEWFEWSCTFEWFEWFEWBKNBKNFEWBKNBKN
FltCatVFRVFRVFRVFRVFRVFRVFRVFRVFRVFRVFRVFRVFR
WX--------------------------
WDir000036050300350350703080
WSpd0 0 0 0 5 4 4 0 7 5 5 8 7
WGst-- -- -- -- -- -- -- -- -- -- -- 16 --
R18/36
XWnd VRB VRB VRB VRB 0 3 2 VRB -1 -1 5 4 7
XGst -- -- -- -- -- -- -- -- -- -- -- 8 --
HWnd VRB VRB VRB VRB -5 -3 -3 VRB -7 -5 -2 -7 -1
HGst -- -- -- -- -- -- -- -- -- -- -- -14 --
Raw hourly METARs
KAUS 020953Z 00000KT 10SM CLR 11/08 A3009 RMK AO2 SLP183 T01060083
KAUS 021053Z 00000KT 10SM CLR 11/09 A3010 RMK AO2 SLP187 T01110089
KAUS 021153Z 00000KT 10SM FEW250 09/08 A3012 RMK AO2 SLP196 T00940083 10128 20094 53013
KAUS 021253Z 00000KT 10SM FEW200 FEW250 11/09 A3014 RMK AO2 SLP204 T01110094
KAUS 021353Z 36005KT 10SM FEW200 SCT250 17/09 A3017 RMK AO2 SLP212 T01720094
KAUS 021453Z 05004KT 10SM FEW200 FEW250 21/11 A3019 RMK AO2 SLP217 T02060111 51021
KAUS 021553Z 03004KT 10SM FEW200 FEW250 24/12 A3018 RMK AO2 SLP215 T02390122
KAUS 021653Z 00000KT 10SM FEW250 25/12 A3018 RMK AO2 SLP213 T02500122
KAUS 021753Z 35007KT 10SM BKN250 27/11 A3015 RMK AO2 SLP205 T02670111 10272 20089 58012
KAUS 021853Z 35005KT 10SM FEW200 BKN250 28/10 A3013 RMK AO2 SLP195 T02830100
KAUS 021953Z COR 07005KT 10SM FEW200 FEW250 28/07 A3010 RMK AO2 SLP187 T02830072
KAUS 022053Z 03008G16KT 10SM BKN250 29/06 A3008 RMK AO2 SLP179 T02890061 56024
KAUS 022153Z 08007KT 10SM BKN250 28/07 A3009 RMK AO2 SLP182 T02830067



Page loaded:  22:43 UTC  |   03:43 PM Pacific  |   04:43 PM Mountain  |   05:43 PM Central  |   06:43 PM Eastern

 

ADVISORIES

FORECASTS

FORECASTS

OBSERVATIONS

USER TOOLS

ABOUT US